Royal Center, Indiana
Current Conditions -  °F | °C
As of 3:35 AM on Sunday 26 Oct 2014 (Local Time) from KGGP Reporting Station
Clear Clear  
Wind Chill: 44°   Ceiling: Unl
Heat Index: 46°   Visibility: 10mi
Dew Point: 32°   Wind: 6mph
Humidity: 57%   Direction: 290°WNW
Pressure: 29.98"   Gusts: NA
Location:  40.86°N, 86.5°W
Report Text: KGGP 260735Z AUTO 29005KT 10SM CLR 08/00 A2998 RMK AO2
Loading
Personal Weather Stations






























Interactive Weather Map
Tropical Storm Tracking
New forecast layout! Learn more

10-Day Weather Forecast

Advertisements
Track Severe Weather on mobile